M I D A S
Marine Information and Data Acquisition System
Tripno 1678 of the Zeeleeuw from 2009-04-21 08:05:11 to 2009-04-21 13:59:22
Back to CruiseResearch ActivitiesStationsMapUnderway DataData graphs

EquipmentUnitsComment
TimeDGPSUTC
LatitudeDGPSDM.mWGS84
LongitudeDGPSDM.mWGS84
TemperatureSBE03/SBE38deg celciusITS90
ConductivitySBE21S/mITS90
SalinitySBE21 Practical Salinity Units
ChlorophylAChelsea fluorimeterg/lCalibrated in Aceton
Missing or incorrect values are displayed as -999
Sea surface data collected by the RV Zeeleeuw from 2009-04-21 07:56:58 to 2009-04-21 14:07:10
Time Latitude Longitude Temperature Conductivity Salinity ChlorophylA
2009-04-21 07:58:04 51°13.675 2°55.908 -999 0.027389 0.148876 -0.687152
2009-04-21 07:59:04 51°13.69 2°55.824 -999 0.027389 0.148888 -0.687152
2009-04-21 08:00:03 51°13.699 2°55.783 -999 0.027389 0.148908 -0.687152
2009-04-21 08:01:04 51°13.746 2°55.708 -999 0.027389 0.148926 -0.687152
2009-04-21 08:02:04 51°13.82 2°55.652 -999 0.027389 0.148948 -0.687152
2009-04-21 08:03:04 51°13.892 2°55.632 -999 0.027286 0.1484 -0.687152
2009-04-21 08:04:02 51°13.913 2°55.626 -999 0.027286 0.148413 -0.687152
2009-04-21 08:05:02 51°13.912 2°55.628 -999 0.027286 0.148443 -0.687152
2009-04-21 08:06:03 51°13.924 2°55.61 -999 0.027286 0.14846 -0.687152
2009-04-21 08:07:02 51°14.004 2°55.532 -999 0.027286 0.14848 -0.687152
2009-04-21 08:08:01 51°14.129 2°55.414 -999 0.027286 0.148502 -0.721976
2009-04-21 08:09:00 51°14.256 2°55.28 -999 0.027286 0.148515 -0.721976
2009-04-21 08:10:01 51°14.374 2°55.111 -999 0.027286 0.148527 -0.687152
2009-04-21 08:11:00 51°14.477 2°54.909 -999 0.027286 0.148547 -0.687152
2009-04-21 08:12:01 51°14.547 2°54.653 -999 0.027286 0.148567 -0.687152
2009-04-21 08:13:01 51°14.61 2°54.39 -999 0.027286 0.148592 -0.687152
2009-04-21 08:14:01 51°14.659 2°54.115 -999 0.027286 0.14861 -0.687152
2009-04-21 08:15:01 51°14.692 2°53.828 -999 0.027286 0.148632 -0.687152
2009-04-21 08:16:01 51°14.721 2°53.535 -999 0.027286 0.148652 -0.721976
2009-04-21 08:17:01 51°14.748 2°53.24 -999 0.027286 0.148667 -0.687152
2009-04-21 08:18:01 51°14.774 2°52.944 -999 0.027286 0.14868 -0.721976
2009-04-21 08:19:01 51°14.801 2°52.65 -999 0.027286 0.1487 -0.721976
2009-04-21 08:20:01 51°14.83 2°52.357 -999 0.027286 0.148715 -0.721976
2009-04-21 08:21:01 51°14.859 2°52.064 -999 0.027286 0.148727 -0.721976
2009-04-21 08:22:01 51°14.888 2°51.772 -999 0.027286 0.14874 -0.687152
2009-04-21 08:23:01 51°14.921 2°51.479 -999 0.027183 0.148198 -0.687152
2009-04-21 08:24:01 51°14.953 2°51.181 -999 0.027286 0.14878 -0.687152
2009-04-21 08:25:01 51°14.98 2°50.881 -999 0.027286 0.14879 -0.721976
2009-04-21 08:26:01 51°15.009 2°50.596 -999 0.027286 0.148805 -0.687152
2009-04-21 08:27:01 51°15.066 2°50.449 -999 0.027286 0.148827 -0.721976
2009-04-21 08:28:01 51°15.131 2°50.476 -999 0.027183 0.148278 -0.721976
2009-04-21 08:29:01 51°15.155 2°50.551 -999 0.027183 0.1483 -0.687152
2009-04-21 08:30:01 51°15.157 2°50.589 -999 0.02708 0.147758 -0.687152
2009-04-21 08:31:01 51°15.155 2°50.621 -999 0.02708 0.14779 -0.721976
2009-04-21 08:32:01 51°15.153 2°50.651 -999 0.02708 0.14781 -0.721976
2009-04-21 08:33:01 51°15.152 2°50.681 -999 0.02708 0.14786 -0.721976
2009-04-21 08:34:01 51°15.153 2°50.71 -999 0.02708 0.14787 -0.687152
2009-04-21 08:35:01 51°15.151 2°50.748 -999 0.02708 0.147875 -0.687152
2009-04-21 08:36:01 51°15.109 2°50.798 -999 0.02708 0.147895 -0.721976
2009-04-21 08:37:01 51°15.074 2°50.732 -999 0.02708 0.147922 -0.721976
2009-04-21 08:38:01 51°15.063 2°50.637 -999 0.02708 0.147947 -0.721976
2009-04-21 08:39:01 51°15.048 2°50.552 -999 0.02708 0.147957 -0.721976
2009-04-21 08:40:01 51°15.041 2°50.462 -999 0.026978 0.147412 -0.721976
2009-04-21 08:41:01 51°15.038 2°50.373 -999 0.026978 0.147439 -0.721976
2009-04-21 08:42:01 51°15.018 2°50.296 -999 0.026978 0.147466 -0.721976
2009-04-21 08:43:01 51°14.979 2°50.238 -999 0.026978 0.147479 -0.721976
2009-04-21 08:44:01 51°14.94 2°50.177 -999 0.026978 0.147491 -0.721976
2009-04-21 08:45:01 51°14.902 2°50.115 -999 0.026978 0.147514 -0.721976
2009-04-21 08:46:01 51°14.865 2°50.053 -999 0.026978 0.147541 -0.721976
2009-04-21 08:47:01 51°14.827 2°49.992 -999 0.026978 0.147561 -0.721976
2009-04-21 08:48:01 51°14.788 2°49.935 -999 0.026978 0.147568 -0.721976
2009-04-21 08:49:01 51°14.749 2°49.877 -999 0.026978 0.147581 -0.721976
2009-04-21 08:50:01 51°14.709 2°49.811 -999 0.026978 0.147601 -0.721976
2009-04-21 08:51:01 51°14.666 2°49.744 -999 0.026875 0.147054 -0.721976
2009-04-21 08:52:01 51°14.624 2°49.678 -999 0.026875 0.147082 -0.721976
2009-04-21 08:53:01 51°14.582 2°49.611 -999 0.026875 0.147104 -0.721976
2009-04-21 08:54:01 51°14.54 2°49.544 -999 0.026875 0.147126 -0.721976
2009-04-21 08:55:01 51°14.497 2°49.476 -999 0.026875 0.147146 -0.7568
2009-04-21 08:56:01 51°14.454 2°49.409 -999 0.026875 0.147166 -0.7568
2009-04-21 08:57:00 51°14.412 2°49.344 -999 0.026875 0.147186 -0.721976
2009-04-21 08:58:01 51°14.369 2°49.279 -999 0.026875 0.147201 -0.721976
2009-04-21 08:59:01 51°14.328 2°49.216 -999 0.026875 0.147224 -0.7568
2009-04-21 09:00:01 51°14.286 2°49.153 -999 0.026875 0.147238 -0.721976
2009-04-21 09:01:01 51°14.244 2°49.09 -999 0.026875 0.147253 -0.7568
2009-04-21 09:02:01 51°14.202 2°49.026 -999 0.026772 0.146709 -0.721976
2009-04-21 09:03:01 51°14.161 2°48.962 -999 0.026772 0.146726 -0.721976
2009-04-21 09:04:01 51°14.12 2°48.898 -999 0.026772 0.146743 -0.721976
2009-04-21 09:05:01 51°14.086 2°48.828 -999 0.026772 0.146761 -0.721976
2009-04-21 09:06:00 51°14.069 2°48.748 -999 0.026772 0.146788 -0.721976
2009-04-21 09:07:01 51°14.059 2°48.664 -999 0.026772 0.146806 -0.7568
2009-04-21 09:08:00 51°14.064 2°48.582 -999 0.026772 0.146825 -0.7568
2009-04-21 09:09:01 51°14.086 2°48.513 -999 0.026772 0.14685 -0.7568
2009-04-21 09:10:01 51°14.107 2°48.485 -999 0.026875 0.147436 -0.7568
2009-04-21 09:11:01 51°14.122 2°48.48 -999 0.026772 0.14689 -0.7568
2009-04-21 09:12:01 51°14.134 2°48.483 -999 0.026772 0.146905 -0.7568
2009-04-21 09:13:00 51°14.163 2°48.48 -999 0.026772 0.146915 -0.7568
2009-04-21 09:14:01 51°14.262 2°48.492 -999 0.026669 0.146374 -0.7568
2009-04-21 09:15:01 51°14.423 2°48.567 -999 0.026669 0.146402 -0.7568
2009-04-21 09:16:01 51°14.618 2°48.682 -999 0.026772 0.146995 -0.7568
2009-04-21 09:17:01 51°14.815 2°48.804 -999 0.026772 0.147017 -0.7568
2009-04-21 09:18:01 51°15.018 2°48.904 -999 0.026772 0.147032 -0.7568
2009-04-21 09:19:01 51°15.221 2°49.007 -999 0.026772 0.147047 -0.7568
2009-04-21 09:20:01 51°15.425 2°49.113 -999 0.026669 0.146496 -0.7568
2009-04-21 09:21:01 51°15.628 2°49.213 -999 0.026772 0.147077 -0.7568
2009-04-21 09:22:01 51°15.836 2°49.286 -999 0.026669 0.146519 -0.7568
2009-04-21 09:23:01 51°16.042 2°49.352 -999 0.026669 0.146529 -0.7568
2009-04-21 09:24:01 51°16.248 2°49.403 -999 0.026669 0.146536 -0.791624
2009-04-21 09:25:01 51°16.456 2°49.457 -999 0.026669 0.146548 -0.7568
2009-04-21 09:26:01 51°16.667 2°49.516 -999 0.026669 0.146561 -0.791624
2009-04-21 09:27:01 51°16.877 2°49.57 -999 0.026669 0.146568 -0.7568
2009-04-21 09:28:01 51°17.086 2°49.617 -999 0.026669 0.146578 -0.7568
2009-04-21 09:29:01 51°17.294 2°49.656 -999 0.026669 0.146588 -0.791624
2009-04-21 09:30:01 51°17.502 2°49.7 -999 0.026669 0.146598 -0.7568
2009-04-21 09:31:01 51°17.71 2°49.752 -999 0.026669 0.146606 -0.7568
2009-04-21 09:32:01 51°17.919 2°49.806 -999 0.026669 0.146616 -0.7568
2009-04-21 09:33:01 51°18.129 2°49.868 -999 0.026669 0.146623 -0.687152
2009-04-21 09:34:01 51°18.334 2°49.962 -999 0.026669 0.146633 -0.791624
2009-04-21 09:35:01 51°18.538 2°50.053 -999 0.026669 0.146641 -0.7568
2009-04-21 09:36:01 51°18.741 2°50.146 -999 0.026669 0.146648 -0.826448
2009-04-21 09:37:01 51°18.943 2°50.238 -999 0.026669 0.146653 -0.7568
2009-04-21 09:38:01 51°19.145 2°50.328 -999 0.026669 0.146656 -0.791624
2009-04-21 09:39:01 51°19.346 2°50.418 -999 0.026669 0.146663 -0.7568
2009-04-21 09:40:01 51°19.549 2°50.503 -999 0.026669 0.146671 -0.791624
2009-04-21 09:41:01 51°19.751 2°50.59 -999 0.026669 0.146673 -0.791624
2009-04-21 09:42:01 51°19.954 2°50.677 -999 0.026669 0.146676 -0.791624
2009-04-21 09:43:01 51°20.157 2°50.772 -999 0.026669 0.146686 -0.791624
2009-04-21 09:44:01 51°20.359 2°50.867 -999 0.026669 0.146686 -0.791624
2009-04-21 09:45:01 51°20.559 2°50.985 -999 0.026669 0.146693 -0.791624
2009-04-21 09:46:01 51°20.76 2°51.1 -999 0.026566 0.146131 -0.791624
2009-04-21 09:47:00 51°20.959 2°51.213 -999 0.026669 0.146698 -0.791624
2009-04-21 09:48:01 51°21.164 2°51.336 -999 0.026669 0.146703 -0.791624
2009-04-21 09:49:01 51°21.366 2°51.443 -999 0.026669 0.146708 -0.791624
2009-04-21 09:50:01 51°21.573 2°51.519 -999 0.026669 0.146706 -0.791624
2009-04-21 09:51:01 51°21.782 2°51.596 -999 0.026669 0.146711 -0.791624
2009-04-21 09:52:01 51°21.991 2°51.678 -999 0.026566 0.146146 -0.791624
2009-04-21 09:53:01 51°22.204 2°51.733 -999 0.026566 0.146149 -0.791624
2009-04-21 09:54:01 51°22.418 2°51.762 -999 0.026669 0.146713 -0.791624
2009-04-21 09:55:01 51°22.633 2°51.796 -999 0.026669 0.146718 -0.791624
2009-04-21 09:56:01 51°22.848 2°51.824 -999 0.026669 0.146716 -0.791624
2009-04-21 09:57:01 51°23.061 2°51.862 -999 0.026669 0.146721 -0.791624
2009-04-21 09:58:01 51°23.271 2°51.904 -999 0.026669 0.146723 -0.791624
2009-04-21 09:59:01 51°23.48 2°51.945 -999 0.026669 0.146726 -0.791624
2009-04-21 10:00:01 51°23.687 2°51.98 -999 0.026669 0.146731 -0.7568
2009-04-21 10:01:01 51°23.895 2°52.008 -999 0.026669 0.146736 -0.791624
2009-04-21 10:02:01 51°24.104 2°52.04 -999 0.026669 0.146741 -0.7568
2009-04-21 10:02:59 51°24.307 2°52.078 -999 0.026669 0.146748 -0.791624
2009-04-21 10:04:01 51°24.525 2°52.117 -999 0.026669 0.146756 -0.791624
2009-04-21 10:05:01 51°24.736 2°52.151 -999 0.026669 0.146763 -0.791624
2009-04-21 10:06:01 51°24.949 2°52.179 -999 0.026566 0.146206 -0.791624
2009-04-21 10:07:01 51°25.16 2°52.175 -999 0.026669 0.146778 -0.791624
2009-04-21 10:08:01 51°25.37 2°52.172 -999 0.026669 0.146791 -0.791624
2009-04-21 10:09:01 51°25.579 2°52.173 -999 0.026669 0.146798 -0.7568
2009-04-21 10:10:01 51°25.788 2°52.176 -999 0.026669 0.146806 -0.791624
2009-04-21 10:11:01 51°25.998 2°52.179 -999 0.026669 0.146818 -0.791624
2009-04-21 10:12:01 51°26.206 2°52.18 -999 0.026566 0.146261 -0.791624
2009-04-21 10:13:01 51°26.415 2°52.182 -999 0.026566 0.146268 -0.791624
2009-04-21 10:14:01 51°26.623 2°52.18 -999 0.026566 0.146283 -0.791624
2009-04-21 10:15:01 51°26.832 2°52.18 -999 0.026566 0.146288 -0.791624
2009-04-21 10:16:01 51°27.039 2°52.183 -999 0.026566 0.1463 -0.7568
2009-04-21 10:17:01 51°27.248 2°52.182 -999 0.026566 0.14631 -0.791624
2009-04-21 10:18:01 51°27.457 2°52.182 -999 0.026566 0.14632 -0.791624
2009-04-21 10:19:01 51°27.669 2°52.184 -999 0.026566 0.14633 -0.791624
2009-04-21 10:20:01 51°27.88 2°52.182 -999 0.026566 0.146345 -0.791624
2009-04-21 10:21:01 51°28.083 2°52.262 -999 0.026566 0.146355 -0.791624
2009-04-21 10:22:01 51°28.271 2°52.433 -999 0.026566 0.146368 -0.791624
2009-04-21 10:23:01 51°28.459 2°52.602 -999 0.026566 0.146378 -0.791624
2009-04-21 10:24:01 51°28.647 2°52.774 -999 0.026566 0.146388 -0.791624
2009-04-21 10:25:01 51°28.835 2°52.946 -999 0.026566 0.1464 -0.791624
2009-04-21 10:26:01 51°29.022 2°53.121 -999 0.026463 0.145847 -0.7568
2009-04-21 10:27:01 51°29.208 2°53.299 -999 0.026463 0.145857 -0.791624
2009-04-21 10:28:01 51°29.394 2°53.479 -999 0.026463 0.14587 -0.791624
2009-04-21 10:29:01 51°29.581 2°53.655 -999 0.026463 0.145879 -0.791624
2009-04-21 10:30:01 51°29.768 2°53.83 -999 0.026463 0.145897 -0.791624
2009-04-21 10:31:01 51°29.956 2°54.006 -999 0.026463 0.145914 -0.7568
2009-04-21 10:32:01 51°30.143 2°54.184 -999 0.026463 0.145922 -0.791624
2009-04-21 10:33:01 51°30.33 2°54.369 -999 0.026463 0.145932 -0.791624
2009-04-21 10:34:01 51°30.514 2°54.552 -999 0.026463 0.145947 -0.791624
2009-04-21 10:35:01 51°30.679 2°54.721 -999 0.026463 0.145959 -0.791624
2009-04-21 10:36:01 51°30.774 2°54.842 -999 0.026463 0.145972 -0.791624
2009-04-21 10:37:01 51°30.849 2°54.938 -999 0.026463 0.145989 -0.791624
2009-04-21 10:38:01 51°30.917 2°55.028 -999 0.02636 0.145438 -0.791624
2009-04-21 10:39:01 51°30.985 2°55.113 -999 0.02636 0.145448 -0.791624
2009-04-21 10:40:01 51°31.052 2°55.202 -999 0.02636 0.145463 -0.791624
2009-04-21 10:41:01 51°31.113 2°55.281 -999 0.026463 0.146051 -0.791624
2009-04-21 10:42:01 51°31.155 2°55.34 -999 0.02636 0.145495 -0.791624
2009-04-21 10:43:01 51°31.209 2°55.415 -999 0.02636 0.14551 -0.791624
2009-04-21 10:44:01 51°31.277 2°55.51 -999 0.02636 0.145527 -0.791624
2009-04-21 10:45:01 51°31.351 2°55.608 -999 0.02636 0.145547 -0.791624
2009-04-21 10:46:01 51°31.43 2°55.714 -999 0.02636 0.145565 -0.791624
2009-04-21 10:47:01 51°31.513 2°55.815 -999 0.02636 0.145582 -0.791624
2009-04-21 10:48:01 51°31.596 2°55.91 -999 0.02636 0.145597 -0.791624
2009-04-21 10:49:01 51°31.658 2°56.009 -999 0.02636 0.145614 -0.826448
2009-04-21 10:50:01 51°31.714 2°56.075 -999 0.026257 0.145075 -0.791624
2009-04-21 10:51:01 51°31.762 2°56.088 -999 0.02636 0.145649 -0.791624
2009-04-21 10:52:01 51°31.799 2°56.07 -999 0.02636 0.145662 -0.826448
2009-04-21 10:53:01 51°31.833 2°56.036 -999 0.026257 0.14511 -0.791624
2009-04-21 10:54:01 51°31.868 2°55.998 -999 0.026257 0.145132 -0.791624
2009-04-21 10:55:01 51°31.907 2°55.952 -999 0.026257 0.145152 -0.791624
2009-04-21 10:56:01 51°31.979 2°55.809 -999 0.026257 0.145174 -0.791624
2009-04-21 10:57:01 51°32.054 2°55.59 -999 0.026257 0.145184 -0.826448
2009-04-21 10:58:01 51°32.158 2°55.335 -999 0.026257 0.145207 -0.826448
2009-04-21 10:59:01 51°32.297 2°55.107 -999 0.026257 0.145224 -0.826448
2009-04-21 11:00:01 51°32.437 2°54.885 -999 0.026257 0.145239 -0.791624
2009-04-21 11:01:01 51°32.576 2°54.659 -999 0.026257 0.145264 -0.826448
2009-04-21 11:02:01 51°32.716 2°54.435 -999 0.026257 0.145279 -0.826448
2009-04-21 11:03:01 51°32.871 2°54.233 -999 0.02636 0.145869 -0.826448
2009-04-21 11:04:01 51°33.028 2°54.034 -999 0.026257 0.145311 -0.791624
2009-04-21 11:05:01 51°33.181 2°53.83 -999 0.026257 0.145329 -0.826448
2009-04-21 11:06:01 51°33.335 2°53.627 -999 0.026257 0.145341 -0.826448
2009-04-21 11:07:01 51°33.485 2°53.431 -999 0.026257 0.145361 -0.826448
2009-04-21 11:08:01 51°33.608 2°53.28 -999 0.026257 0.145371 -0.826448
2009-04-21 11:09:01 51°33.71 2°53.152 -999 0.026257 0.145383 -0.826448
2009-04-21 11:10:01 51°33.815 2°53.013 -999 0.026257 0.145398 -0.826448
2009-04-21 11:11:01 51°33.917 2°52.873 -999 0.026257 0.145416 -0.791624
2009-04-21 11:12:01 51°33.997 2°52.781 -999 0.026257 0.145428 -0.826448
2009-04-21 11:13:01 51°34.053 2°52.71 -999 0.026257 0.145443 -0.826448
2009-04-21 11:14:01 51°34.097 2°52.647 -999 0.026257 0.145458 -0.826448
2009-04-21 11:15:01 51°34.137 2°52.604 -999 0.026257 0.145473 -0.791624
2009-04-21 11:16:01 51°34.174 2°52.559 -999 0.026257 0.145491 -0.826448
2009-04-21 11:17:01 51°34.193 2°52.533 -999 0.026257 0.145506 -0.826448
2009-04-21 11:18:01 51°34.203 2°52.528 -999 0.026257 0.145516 -0.826448
2009-04-21 11:19:01 51°34.211 2°52.526 -999 0.026257 0.145531 -0.826448
2009-04-21 11:20:01 51°34.219 2°52.531 -999 0.026257 0.145548 -0.826448
2009-04-21 11:21:01 51°34.227 2°52.541 -999 0.026257 0.145566 -0.826448
2009-04-21 11:22:01 51°34.235 2°52.553 -999 0.026257 0.145581 -0.826448
2009-04-21 11:23:01 51°34.231 2°52.531 -999 0.026257 0.145606 -0.826448
2009-04-21 11:24:01 51°34.209 2°52.522 -999 0.026257 0.145608 -0.826448
2009-04-21 11:25:01 51°34.195 2°52.522 -999 0.026257 0.145626 -0.826448
2009-04-21 11:26:01 51°34.185 2°52.519 -999 0.026257 0.145641 -0.826448
2009-04-21 11:27:01 51°34.182 2°52.515 -999 0.026257 0.145661 -0.826448
2009-04-21 11:28:01 51°34.185 2°52.515 -999 0.026257 0.145681 -0.826448
2009-04-21 11:29:01 51°34.191 2°52.519 -999 0.026257 0.145696 -0.826448
2009-04-21 11:30:01 51°34.199 2°52.523 -999 0.026257 0.145711 -0.826448
2009-04-21 11:31:01 51°34.209 2°52.523 -999 0.026257 0.145721 -0.826448
2009-04-21 11:32:01 51°34.22 2°52.523 -999 0.026257 0.145739 -0.826448
2009-04-21 11:33:01 51°34.23 2°52.528 -999 0.026257 0.145754 -0.826448
2009-04-21 11:34:01 51°34.241 2°52.537 -999 0.026257 0.145771 -0.826448
2009-04-21 11:35:01 51°34.251 2°52.549 -999 0.026257 0.145791 -0.826448
2009-04-21 11:36:01 51°34.26 2°52.532 -999 0.026257 0.145812 -0.826448
2009-04-21 11:37:01 51°34.242 2°52.523 -999 0.026257 0.145817 -0.826448
2009-04-21 11:38:01 51°34.219 2°52.524 -999 0.026257 0.145829 -0.826448
2009-04-21 11:39:01 51°34.202 2°52.517 -999 0.026257 0.145849 -0.826448
2009-04-21 11:40:01 51°34.196 2°52.515 -999 0.026257 0.145877 -0.826448
2009-04-21 11:41:01 51°34.193 2°52.518 -999 0.026257 0.145892 -0.826448
2009-04-21 11:42:01 51°34.194 2°52.517 -999 0.026257 0.145902 -0.826448
2009-04-21 11:43:01 51°34.201 2°52.517 -999 0.026257 0.14592 -0.826448
2009-04-21 11:44:01 51°34.209 2°52.527 -999 0.026257 0.145937 -0.826448
2009-04-21 11:45:01 51°34.219 2°52.539 -999 0.026257 0.145958 -0.826448
2009-04-21 11:46:01 51°34.227 2°52.555 -999 0.026257 0.145973 -0.826448
2009-04-21 11:47:01 51°34.236 2°52.571 -999 0.026257 0.14599 -0.826448
2009-04-21 11:48:01 51°34.244 2°52.589 -999 0.026257 0.146005 -0.826448
2009-04-21 11:49:01 51°34.253 2°52.607 -999 0.026257 0.146026 -0.826448
2009-04-21 11:50:01 51°34.263 2°52.617 -999 0.026257 0.146041 -0.826448
2009-04-21 11:51:01 51°34.261 2°52.589 -999 0.026257 0.146056 -0.826448
2009-04-21 11:52:01 51°34.245 2°52.564 -999 0.026257 0.146061 -0.826448
2009-04-21 11:53:01 51°34.235 2°52.536 -999 0.026257 0.146086 -0.826448
2009-04-21 11:54:01 51°34.221 2°52.536 -999 0.026257 0.146099 -0.826448
2009-04-21 11:55:01 51°34.204 2°52.548 -999 0.026154 0.145538 -0.826448
2009-04-21 11:56:01 51°34.194 2°52.563 -999 0.026154 0.14555 -0.826448
2009-04-21 11:57:01 51°34.185 2°52.551 -999 0.026154 0.145568 -0.826448
2009-04-21 11:58:01 51°34.192 2°52.536 -999 0.026154 0.145585 -0.826448
2009-04-21 11:59:01 51°34.206 2°52.521 -999 0.026154 0.145606 -0.826448
2009-04-21 12:00:01 51°34.222 2°52.522 -999 0.026257 0.1462 -0.826448
2009-04-21 12:01:01 51°34.236 2°52.529 -999 0.026154 0.145646 -0.826448
2009-04-21 12:02:01 51°34.249 2°52.54 -999 0.026154 0.145661 -0.826448
2009-04-21 12:03:01 51°34.261 2°52.554 -999 0.026257 0.146258 -0.826448
2009-04-21 12:04:00 51°34.273 2°52.562 -999 0.026154 0.145699 -0.826448
2009-04-21 12:05:01 51°34.275 2°52.542 -999 0.026154 0.145704 -0.826448
2009-04-21 12:06:01 51°34.243 2°52.563 -999 0.026154 0.145711 -0.861272
2009-04-21 12:07:01 51°34.185 2°52.671 -999 0.026154 0.145714 -0.826448
2009-04-21 12:08:01 51°34.077 2°52.805 -999 0.026154 0.145734 -0.826448
2009-04-21 12:09:01 51°33.927 2°52.941 -999 0.026154 0.145759 -0.826448
2009-04-21 12:10:01 51°33.754 2°53.065 -999 0.026154 0.14578 -0.861272
2009-04-21 12:11:01 51°33.578 2°53.185 -999 0.026257 0.146367 -0.861272
2009-04-21 12:12:01 51°33.402 2°53.308 -999 0.026154 0.14581 -0.861272
2009-04-21 12:13:01 51°33.226 2°53.428 -999 0.026257 0.146395 -0.826448
2009-04-21 12:14:01 51°33.042 2°53.493 -999 0.026154 0.145845 -0.861272
2009-04-21 12:15:01 51°32.856 2°53.513 -999 0.026154 0.145858 -0.861272
2009-04-21 12:16:01 51°32.67 2°53.517 -999 0.026154 0.145876 -0.861272
2009-04-21 12:17:01 51°32.483 2°53.525 -999 0.026154 0.145891 -0.826448
2009-04-21 12:18:01 51°32.298 2°53.534 -999 0.026154 0.145906 -0.861272
2009-04-21 12:19:01 51°32.115 2°53.548 -999 0.026154 0.145936 -0.861272
2009-04-21 12:20:00 51°31.933 2°53.556 -999 0.026154 0.145954 -0.861272
2009-04-21 12:21:01 51°31.745 2°53.572 -999 0.026154 0.145967 -0.861272
2009-04-21 12:22:01 51°31.561 2°53.59 -999 0.026154 0.145987 -0.861272
2009-04-21 12:23:01 51°31.378 2°53.601 -999 0.026154 0.146005 -0.861272
2009-04-21 12:24:01 51°31.197 2°53.595 -999 0.026154 0.146018 -0.861272
2009-04-21 12:25:01 51°31.016 2°53.589 -999 0.026154 0.146035 -0.861272
2009-04-21 12:26:01 51°30.835 2°53.589 -999 0.026154 0.146053 -0.861272
2009-04-21 12:27:01 51°30.651 2°53.583 -999 0.026154 0.146063 -0.861272
2009-04-21 12:28:01 51°30.464 2°53.577 -999 0.026154 0.146073 -0.861272
2009-04-21 12:29:00 51°30.279 2°53.575 -999 0.026154 0.146084 -0.861272
2009-04-21 12:30:01 51°30.087 2°53.569 -999 0.026154 0.146099 -0.861272
2009-04-21 12:31:01 51°29.896 2°53.564 -999 0.026051 0.145535 -0.861272
2009-04-21 12:32:01 51°29.708 2°53.535 -999 0.026154 0.146119 -0.861272
2009-04-21 12:33:01 51°29.539 2°53.411 -999 0.026154 0.146139 -0.861272
2009-04-21 12:34:01 51°29.374 2°53.276 -999 0.026154 0.146147 -0.861272
2009-04-21 12:35:01 51°29.211 2°53.135 -999 0.026154 0.146157 -0.861272
2009-04-21 12:36:01 51°29.044 2°53.011 -999 0.026154 0.146173 -0.861272
2009-04-21 12:37:01 51°28.869 2°52.924 -999 0.026051 0.145609 -0.861272
2009-04-21 12:38:00 51°28.694 2°52.846 -999 0.026051 0.145619 -0.861272
2009-04-21 12:39:01 51°28.512 2°52.772 -999 0.026154 0.146206 -0.861272
2009-04-21 12:40:01 51°28.334 2°52.69 -999 0.026051 0.145644 -0.861272
2009-04-21 12:41:01 51°28.157 2°52.597 -999 0.026051 0.145657 -0.861272
2009-04-21 12:42:01 51°27.981 2°52.503 -999 0.026051 0.145667 -0.861272
2009-04-21 12:43:01 51°27.802 2°52.419 -999 0.026051 0.145674 -0.861272
2009-04-21 12:44:01 51°27.623 2°52.354 -999 0.026051 0.145692 -0.861272
2009-04-21 12:45:01 51°27.437 2°52.354 -999 0.026051 0.145705 -0.861272
2009-04-21 12:46:01 51°27.248 2°52.359 -999 0.026154 0.146292 -0.861272
2009-04-21 12:47:01 51°27.06 2°52.36 -999 0.026051 0.145723 -0.861272
2009-04-21 12:48:01 51°26.87 2°52.358 -999 0.026051 0.145738 -0.896096
2009-04-21 12:49:01 51°26.68 2°52.356 -999 0.026051 0.145748 -0.861272
2009-04-21 12:50:01 51°26.498 2°52.443 -999 0.026154 0.146343 -0.861272
2009-04-21 12:51:01 51°26.338 2°52.623 -999 0.026154 0.146366 -0.861272
2009-04-21 12:52:01 51°26.187 2°52.83 -999 0.026051 0.145809 -0.861272
2009-04-21 12:53:01 51°26.033 2°53.037 -999 0.026051 0.145799 -0.861272
2009-04-21 12:54:01 51°25.881 2°53.24 -999 0.026051 0.145806 -0.861272
2009-04-21 12:55:01 51°25.729 2°53.438 -999 0.026051 0.145819 -0.861272
2009-04-21 12:56:01 51°25.557 2°53.588 -999 0.026051 0.145832 -0.896096
2009-04-21 12:57:01 51°25.37 2°53.633 -999 0.026051 0.145847 -0.861272
2009-04-21 12:58:01 51°25.182 2°53.634 -999 0.026051 0.14586 -0.861272
2009-04-21 12:59:01 51°24.994 2°53.637 -999 0.026051 0.14587 -0.861272
2009-04-21 13:00:01 51°24.805 2°53.646 -999 0.026051 0.145883 -0.861272
2009-04-21 13:01:01 51°24.623 2°53.634 -999 0.026052 0.145906 -0.861272
2009-04-21 13:02:01 51°24.441 2°53.703 -999 0.026052 0.145908 -0.861272
2009-04-21 13:03:01 51°24.253 2°53.721 -999 0.026052 0.145918 -0.861272
2009-04-21 13:04:01 51°24.065 2°53.706 -999 0.026052 0.145934 -0.896096
2009-04-21 13:05:01 51°23.878 2°53.668 -999 0.025949 0.145366 -0.861272
2009-04-21 13:06:01 51°23.691 2°53.617 -999 0.026052 0.145954 -0.896096
2009-04-21 13:07:01 51°23.506 2°53.55 -999 0.026052 0.145969 -0.896096
2009-04-21 13:08:01 51°23.321 2°53.486 -999 0.025949 0.145404 -0.861272
2009-04-21 13:09:01 51°23.135 2°53.428 -999 0.026052 0.14599 -0.861272
2009-04-21 13:10:01 51°22.948 2°53.367 -999 0.025949 0.145424 -0.896096
2009-04-21 13:11:01 51°22.761 2°53.3 -999 0.026052 0.146015 -0.896096
2009-04-21 13:12:01 51°22.572 2°53.239 -999 0.025949 0.14545 -0.896096
2009-04-21 13:13:01 51°22.381 2°53.2 -999 0.025949 0.145462 -0.896096
2009-04-21 13:14:01 51°22.191 2°53.164 -999 0.026052 0.146051 -0.896096
2009-04-21 13:15:01 51°21.998 2°53.131 -999 0.025949 0.145485 -0.861272
2009-04-21 13:16:01 51°21.803 2°53.13 -999 0.025949 0.145498 -0.896096
2009-04-21 13:17:01 51°21.607 2°53.137 -999 0.025949 0.145503 -0.896096
2009-04-21 13:18:01 51°21.411 2°53.145 -999 0.025949 0.145511 -0.896096
2009-04-21 13:19:01 51°21.216 2°53.149 -999 0.025949 0.145518 -0.896096
2009-04-21 13:20:01 51°21.021 2°53.15 -999 0.025949 0.145526 -0.896096
2009-04-21 13:21:01 51°20.83 2°53.129 -999 0.025949 0.145539 -0.896096
2009-04-21 13:22:01 51°20.642 2°53.101 -999 0.025949 0.145549 -0.896096
2009-04-21 13:23:01 51°20.452 2°53.076 -999 0.025949 0.145556 -0.896096
2009-04-21 13:24:01 51°20.26 2°53.047 -999 0.025949 0.145567 -0.896096
2009-04-21 13:25:01 51°20.068 2°53.019 -999 0.025949 0.145579 -0.896096
2009-04-21 13:26:01 51°19.885 2°52.939 -999 0.026052 0.146171 -0.896096
2009-04-21 13:27:01 51°19.702 2°52.841 -999 0.025949 0.145615 -0.896096
2009-04-21 13:28:01 51°19.507 2°52.83 -999 0.025949 0.14561 -0.896096
2009-04-21 13:29:01 51°19.31 2°52.812 -999 0.025949 0.145618 -0.896096
2009-04-21 13:30:01 51°19.113 2°52.796 -999 0.025949 0.145623 -0.896096
2009-04-21 13:31:01 51°18.92 2°52.761 -999 0.025949 0.145628 -0.896096
2009-04-21 13:32:01 51°18.728 2°52.701 -999 0.025949 0.145635 -0.896096
2009-04-21 13:33:01 51°18.536 2°52.634 -999 0.025949 0.145648 -0.896096
2009-04-21 13:34:01 51°18.342 2°52.575 -999 0.025949 0.145653 -0.896096
2009-04-21 13:35:01 51°18.15 2°52.51 -999 0.025949 0.145663 -0.896096
2009-04-21 13:36:01 51°17.956 2°52.457 -999 0.025949 0.145674 -0.896096
2009-04-21 13:37:01 51°17.762 2°52.434 -999 0.025949 0.145681 -0.896096
2009-04-21 13:38:01 51°17.567 2°52.419 -999 0.025949 0.145686 -0.896096
2009-04-21 13:39:01 51°17.37 2°52.394 -999 0.025949 0.145694 -0.896096
2009-04-21 13:40:01 51°17.172 2°52.388 -999 0.025949 0.145704 -0.896096
2009-04-21 13:41:01 51°16.981 2°52.424 -999 0.025949 0.145712 -0.896096
2009-04-21 13:42:01 51°16.795 2°52.503 -999 0.025949 0.14572 -0.896096
2009-04-21 13:43:01 51°16.607 2°52.583 -999 0.025949 0.145727 -0.896096
2009-04-21 13:44:01 51°16.418 2°52.66 -999 0.025949 0.145732 -0.896096
2009-04-21 13:45:01 51°16.228 2°52.735 -999 0.025949 0.145737 -0.896096
2009-04-21 13:46:01 51°16.037 2°52.806 -999 0.025949 0.145745 -0.896096
2009-04-21 13:47:01 51°15.848 2°52.891 -999 0.025949 0.14575 -0.896096
2009-04-21 13:48:01 51°15.661 2°52.989 -999 0.025949 0.145755 -0.93092
2009-04-21 13:49:01 51°15.478 2°53.101 -999 0.025949 0.14576 -0.896096
2009-04-21 13:50:01 51°15.3 2°53.229 -999 0.025949 0.145768 -0.896096
2009-04-21 13:51:01 51°15.136 2°53.392 -999 0.025846 0.145198 -0.93092
2009-04-21 13:52:01 51°14.986 2°53.587 -999 0.025949 0.145783 -0.896096
2009-04-21 13:53:01 51°14.863 2°53.816 -999 0.025846 0.145211 -0.93092
2009-04-21 13:54:01 51°14.75 2°54.064 -999 0.025846 0.145214 -0.896096
2009-04-21 13:55:01 51°14.64 2°54.32 -999 0.025846 0.145219 -0.896096
2009-04-21 13:56:01 51°14.535 2°54.578 -999 0.025846 0.145224 -0.896096
2009-04-21 13:57:01 51°14.434 2°54.841 -999 0.025846 0.145229 -0.896096
2009-04-21 13:58:01 51°14.334 2°55.108 -999 0.025949 0.145814 -0.896096
2009-04-21 13:59:01 51°14.239 2°55.295 -999 0.025846 0.145239 -0.93092
2009-04-21 14:00:01 51°14.139 2°55.409 -999 0.025846 0.145244 -0.93092
2009-04-21 14:01:05 51°14.026 2°55.49 -999 0.025846 0.145249 -0.896096
2009-04-21 14:04:05 51°13.98 2°55.522 -999 0.025846 0.145267 -0.93092
2009-04-21 14:05:04 51°13.697 2°55.824 -999 0.025846 0.14527 -0.93092
2009-04-21 14:06:04 51°13.668 2°55.912 -999 0.025846 0.145282 -0.93092
2009-04-21 14:07:03 51°13.662 2°55.955 -999 0.025846 0.145282 -0.93092